Time;durP1;ratioP1;P1;durP2;ratioP2;P2;SDS_P1;SDS_P2;PMS_P1;PMS_P2;Temp;Humidity;BMP_temperature;BMP_pressure;BME280_temperature;BME280_humidity;BME280_pressure;Samples;Min_cycle;Max_cycle;Signal;HPM_P1;HPM_P2
2023/12/06 00:01:26;;;;;;;44.75;13.25;;;-5.90;99.90;;;;;;4923395;29;20252;-96
2023/12/06 00:03:54;;;;;;;34.47;12.25;;;-6.00;99.90;;;;;;4939573;29;20241;-95
2023/12/06 00:06:24;;;;;;;45.53;13.48;;;-6.00;99.90;;;;;;4923596;29;20200;-94
2023/12/06 00:08:52;;;;;;;33.38;12.68;;;-6.00;99.90;;;;;;4939395;29;20192;-96
2023/12/06 00:11:20;;;;;;;28.98;12.43;;;-6.10;99.90;;;;;;4923450;29;20280;-95
2023/12/06 00:13:47;;;;;;;36.85;11.73;;;-6.10;99.90;;;;;;4923065;29;20213;-96
2023/12/06 00:16:15;;;;;;;31.05;10.57;;;-6.10;99.90;;;;;;4939037;29;20292;-95
2023/12/06 00:18:43;;;;;;;27.02;10.43;;;-6.20;99.90;;;;;;4923500;29;20193;-96
2023/12/06 00:21:12;;;;;;;34.22;11.45;;;-6.20;99.90;;;;;;4939427;29;20189;-96
2023/12/06 00:23:39;;;;;;;26.27;10.27;;;-6.10;99.90;;;;;;4923069;29;20632;-95
2023/12/06 00:26:07;;;;;;;25.02;9.43;;;-6.20;99.90;;;;;;4923213;29;20823;-95
2023/12/06 00:28:35;;;;;;;28.77;11.73;;;-6.20;99.90;;;;;;4938655;29;20293;-95
2023/12/06 00:31:02;;;;;;;27.38;10.40;;;-6.20;99.90;;;;;;4939115;29;20202;-94
2023/12/06 00:33:30;;;;;;;30.25;10.05;;;-6.20;99.90;;;;;;4922711;29;20304;-95
2023/12/06 00:35:58;;;;;;;28.88;11.43;;;-6.10;99.90;;;;;;4922674;29;20196;-93
2023/12/06 00:38:25;;;;;;;25.77;9.63;;;-6.20;99.90;;;;;;4938837;29;20185;-95
2023/12/06 00:40:54;;;;;;;31.40;11.20;;;-6.10;99.90;;;;;;4921998;29;20221;-96
2023/12/06 00:43:21;;;;;;;26.02;10.32;;;-6.10;99.90;;;;;;4954527;29;20199;-95
2023/12/06 00:45:49;;;;;;;28.35;10.07;;;-6.10;99.90;;;;;;4922648;29;20199;-96
2023/12/06 00:48:16;;;;;;;22.88;9.35;;;-6.10;99.90;;;;;;4954079;28;20253;-95
2023/12/06 00:50:44;;;;;;;22.15;9.77;;;-6.10;99.90;;;;;;4922547;29;20549;-96
2023/12/06 00:53:11;;;;;;;22.38;7.95;;;-6.20;99.90;;;;;;4938260;29;20236;-95
2023/12/06 00:55:39;;;;;;;26.23;10.20;;;-6.10;99.90;;;;;;4921580;29;20652;-95
2023/12/06 00:58:06;;;;;;;21.80;9.85;;;-6.10;99.90;;;;;;4938297;29;20193;-94
2023/12/06 01:00:34;;;;;;;30.80;11.00;;;-6.30;99.90;;;;;;4921659;29;20225;-95
2023/12/06 01:03:02;;;;;;;30.10;11.52;;;-6.30;99.90;;;;;;4922321;29;20229;-95
2023/12/06 01:05:30;;;;;;;24.55;10.93;;;-6.30;99.90;;;;;;4953916;29;20200;-95
2023/12/06 01:07:57;;;;;;;37.33;12.88;;;-6.30;99.90;;;;;;4922152;29;20559;-95
2023/12/06 01:10:25;;;;;;;25.95;10.25;;;-6.30;99.90;;;;;;4938413;29;20201;-96
2023/12/06 01:12:52;;;;;;;31.17;11.85;;;-6.30;99.90;;;;;;4922439;29;20213;-95
2023/12/06 01:15:20;;;;;;;23.60;10.20;;;-6.30;99.90;;;;;;4922243;29;20190;-94
2023/12/06 01:17:47;;;;;;;27.80;10.02;;;-6.20;99.90;;;;;;4937369;29;20693;-94
2023/12/06 01:20:15;;;;;;;24.88;10.23;;;-6.10;99.90;;;;;;4922050;29;20193;-95
2023/12/06 01:22:42;;;;;;;19.92;9.30;;;-6.10;99.90;;;;;;4937834;29;20212;-96
2023/12/06 01:25:10;;;;;;;23.23;9.30;;;-6.00;99.90;;;;;;4922123;29;20559;-94
2023/12/06 01:27:38;;;;;;;21.83;9.25;;;-6.00;99.90;;;;;;4938161;29;20197;-96
2023/12/06 01:30:06;;;;;;;21.90;8.65;;;-6.10;99.90;;;;;;4922053;29;20193;-95
2023/12/06 01:32:40;;;;;;;22.05;9.27;;;-6.10;99.90;;;;;;4922998;29;20205;-96
2023/12/06 01:35:08;;;;;;;22.90;8.63;;;-6.10;99.90;;;;;;4922258;29;20190;-95
2023/12/06 01:37:36;;;;;;;21.38;9.20;;;-6.10;99.90;;;;;;4921378;29;20229;-95
2023/12/06 01:40:04;;;;;;;23.90;7.88;;;-6.00;99.90;;;;;;4921386;29;20197;-96
2023/12/06 01:42:32;;;;;;;25.70;8.75;;;-6.10;99.90;;;;;;4921787;29;20289;-95
2023/12/06 01:45:00;;;;;;;24.05;8.73;;;-6.20;99.90;;;;;;4937374;29;20197;-95
2023/12/06 01:47:30;;;;;;;24.23;10.07;;;-6.50;99.90;;;;;;4921836;29;20202;-96
2023/12/06 01:50:01;;;;;;;30.67;9.95;;;-6.60;99.90;;;;;;4921581;29;20555;-95
2023/12/06 01:52:32;;;;;;;22.15;8.02;;;-6.50;99.90;;;;;;4922097;29;20249;-95
2023/12/06 01:54:59;;;;;;;27.67;10.20;;;-6.40;99.90;;;;;;4921668;29;20618;-95
2023/12/06 01:57:31;;;;;;;22.38;9.07;;;-6.50;99.90;;;;;;4921676;29;20218;-96
2023/12/06 01:59:59;;;;;;;30.67;11.68;;;-6.30;99.90;;;;;;4937098;29;20192;-96
2023/12/06 02:02:37;;;;;;;23.92;10.20;;;-6.20;99.90;;;;;;4937647;29;20185;-95
2023/12/06 02:05:05;;;;;;;26.95;10.82;;;-6.20;99.90;;;;;;4953103;29;20209;-94
2023/12/06 02:07:34;;;;;;;26.92;10.98;;;-6.20;99.90;;;;;;4936978;29;20197;-96
2023/12/06 02:10:02;;;;;;;25.55;9.38;;;-6.30;99.90;;;;;;4921148;29;20252;-94
2023/12/06 02:12:30;;;;;;;31.42;10.77;;;-6.40;99.90;;;;;;4952434;29;20213;-96
2023/12/06 02:14:59;;;;;;;30.20;11.50;;;-6.50;99.90;;;;;;4936997;29;20197;-95
2023/12/06 02:17:27;;;;;;;30.60;11.90;;;-6.50;99.90;;;;;;4921506;29;20193;-95
2023/12/06 02:19:55;;;;;;;27.33;11.88;;;-6.20;99.90;;;;;;4921514;29;20190;-95
2023/12/06 02:22:24;;;;;;;26.63;10.90;;;-6.10;99.90;;;;;;4952798;29;20197;-95
2023/12/06 02:24:56;;;;;;;29.05;12.50;;;-6.20;99.90;;;;;;4921185;29;20201;-96
2023/12/06 02:27:23;;;;;;;25.10;10.15;;;-6.10;99.90;;;;;;4920762;29;20186;-96
2023/12/06 02:29:51;;;;;;;26.50;10.98;;;-6.00;99.90;;;;;;4936425;29;20252;-95
2023/12/06 02:32:19;;;;;;;24.42;9.88;;;-6.10;99.90;;;;;;4937222;29;20282;-95
2023/12/06 02:34:49;;;;;;;25.58;10.75;;;-6.00;99.90;;;;;;4921731;29;20190;-95
2023/12/06 02:37:19;;;;;;;26.77;10.15;;;-6.00;99.90;;;;;;4936989;29;20241;-95
2023/12/06 02:39:48;;;;;;;24.17;9.13;;;-6.00;99.90;;;;;;4920826;29;20185;-95
2023/12/06 02:42:16;;;;;;;25.88;9.50;;;-6.00;99.90;;;;;;4921159;29;20854;-96
2023/12/06 02:44:44;;;;;;;22.80;8.90;;;-6.00;99.90;;;;;;4936600;29;20194;-95
2023/12/06 02:47:11;;;;;;;21.77;8.48;;;-6.00;99.90;;;;;;4921133;29;20193;-95
2023/12/06 02:49:39;;;;;;;19.30;7.50;;;-6.00;99.90;;;;;;4935998;29;20284;-96
2023/12/06 02:52:07;;;;;;;22.52;7.57;;;-6.10;99.90;;;;;;4920771;29;20660;-94
2023/12/06 02:54:35;;;;;;;17.42;7.70;;;-6.10;99.90;;;;;;4937098;29;20295;-95
2023/12/06 02:57:03;;;;;;;17.83;6.72;;;-6.10;99.90;;;;;;4921433;29;20541;-95
2023/12/06 02:59:30;;;;;;;14.85;5.90;;;-6.00;99.90;;;;;;4921795;29;20193;-95
2023/12/06 03:01:58;;;;;;;14.73;5.50;;;-6.10;99.90;;;;;;4943599;28;20234;-95
2023/12/06 03:04:25;;;;;;;17.65;5.93;;;-6.10;99.90;;;;;;4975346;28;20263;-95
2023/12/06 03:06:53;;;;;;;15.00;5.65;;;-6.10;99.90;;;;;;4975589;28;20188;-96
2023/12/06 03:09:21;;;;;;;15.77;5.88;;;-6.10;99.90;;;;;;4959414;28;20215;-95
2023/12/06 03:11:48;;;;;;;14.55;5.82;;;-6.20;99.90;;;;;;4959397;28;20262;-95
2023/12/06 03:14:16;;;;;;;13.80;5.75;;;-6.00;99.90;;;;;;4974782;28;20555;-96
2023/12/06 03:16:43;;;;;;;15.88;6.25;;;-6.10;99.90;;;;;;4958979;28;20192;-95
2023/12/06 03:19:11;;;;;;;14.73;5.57;;;-6.10;99.90;;;;;;4974701;28;20188;-96
2023/12/06 03:21:39;;;;;;;14.88;6.28;;;-6.10;99.90;;;;;;4959790;28;20188;-95
2023/12/06 03:24:06;;;;;;;15.80;6.07;;;-6.00;99.90;;;;;;4975388;28;20255;-95
2023/12/06 03:26:34;;;;;;;16.25;6.82;;;-5.90;99.90;;;;;;4958731;28;20603;-96
2023/12/06 03:29:01;;;;;;;17.13;5.97;;;-6.00;99.90;;;;;;4974661;28;20188;-95
2023/12/06 03:31:29;;;;;;;22.55;8.13;;;-6.10;99.90;;;;;;4974526;28;20202;-95
2023/12/06 03:33:56;;;;;;;21.33;7.72;;;-6.10;99.90;;;;;;4974762;28;20322;-96
2023/12/06 03:36:24;;;;;;;22.45;7.65;;;-6.10;99.90;;;;;;4974501;28;20191;-95
2023/12/06 03:38:51;;;;;;;20.70;8.23;;;-6.00;99.90;;;;;;4974705;28;20246;-95
2023/12/06 03:41:19;;;;;;;17.48;7.28;;;-6.20;99.90;;;;;;4974062;28;20590;-95
2023/12/06 03:43:47;;;;;;;16.42;7.25;;;-6.20;99.90;;;;;;4973917;28;20192;-94
2023/12/06 03:46:29;;;;;;;19.17;7.50;;;-6.10;99.90;;;;;;4973912;28;20191;-94
2023/12/06 03:48:57;;;;;;;20.98;8.48;;;-6.00;99.90;;;;;;4958239;28;20761;-95
2023/12/06 03:51:25;;;;;;;17.38;7.15;;;-6.00;99.90;;;;;;4974405;28;20196;-95
2023/12/06 03:53:52;;;;;;;20.50;7.70;;;-6.00;99.90;;;;;;4974424;28;20211;-95
2023/12/06 03:56:20;;;;;;;20.63;7.75;;;-5.90;99.90;;;;;;4974220;28;20672;-96
2023/12/06 03:58:47;;;;;;;21.15;8.30;;;-6.00;99.90;;;;;;4958044;28;20192;-95
2023/12/06 04:01:15;;;;;;;23.33;8.43;;;-6.00;99.90;;;;;;4973979;28;20238;-95
2023/12/06 04:03:43;;;;;;;23.65;8.85;;;-5.90;99.90;;;;;;4957908;28;20192;-95
2023/12/06 04:06:10;;;;;;;22.08;8.68;;;-5.90;99.90;;;;;;4957843;28;20203;-95
2023/12/06 04:08:38;;;;;;;18.20;8.25;;;-5.90;99.90;;;;;;4970798;28;20200;-95
2023/12/06 04:11:06;;;;;;;23.63;8.73;;;-5.90;99.90;;;;;;4938860;29;20252;-94
2023/12/06 04:13:33;;;;;;;20.50;8.63;;;-5.80;99.90;;;;;;4954584;28;20204;-95
2023/12/06 04:16:01;;;;;;;23.73;8.25;;;-5.90;99.90;;;;;;4938770;29;20184;-94
2023/12/06 04:18:28;;;;;;;23.20;9.65;;;-6.00;99.90;;;;;;4954642;28;20240;-95
2023/12/06 04:20:56;;;;;;;25.02;9.48;;;-6.00;99.90;;;;;;4955157;28;20192;-95
2023/12/06 04:23:24;;;;;;;22.35;9.02;;;-5.80;99.90;;;;;;4954638;29;20655;-96
2023/12/06 04:25:52;;;;;;;26.45;10.48;;;-5.70;99.90;;;;;;4938640;29;20201;-96
2023/12/06 04:28:19;;;;;;;28.80;10.50;;;-5.80;99.90;;;;;;4970725;28;20196;-95
2023/12/06 04:30:46;;;;;;;25.30;9.82;;;-6.00;99.90;;;;;;4957872;28;20248;-94
2023/12/06 04:33:14;;;;;;;23.67;8.43;;;-5.90;99.90;;;;;;4941545;29;20216;-95
2023/12/06 04:35:42;;;;;;;24.48;11.20;;;-5.80;99.90;;;;;;4957956;28;20193;-95
2023/12/06 04:38:09;;;;;;;25.08;9.90;;;-6.00;99.90;;;;;;4958000;29;20197;-94
2023/12/06 04:40:37;;;;;;;28.42;10.43;;;-5.90;99.90;;;;;;4943144;28;20193;-95
2023/12/06 04:43:04;;;;;;;26.70;10.95;;;-5.90;99.90;;;;;;4960402;28;20192;-95
2023/12/06 04:45:32;;;;;;;25.00;11.50;;;-5.80;99.90;;;;;;4960630;28;20654;-96
2023/12/06 04:48:00;;;;;;;29.33;11.57;;;-5.90;99.90;;;;;;4943357;28;20203;-95
2023/12/06 04:50:27;;;;;;;28.08;11.43;;;-6.00;99.90;;;;;;4959051;28;20654;-96
2023/12/06 04:52:56;;;;;;;32.10;12.75;;;-6.00;99.90;;;;;;4942623;28;20191;-96
2023/12/06 04:55:24;;;;;;;33.17;11.27;;;-5.90;99.90;;;;;;4958552;28;20196;-95
2023/12/06 04:57:51;;;;;;;31.13;11.93;;;-5.90;99.90;;;;;;4974205;28;20263;-94
2023/12/06 05:00:21;;;;;;;30.20;11.63;;;-6.00;99.90;;;;;;4958802;28;20188;-95
2023/12/06 05:02:49;;;;;;;28.10;11.98;;;-6.00;99.90;;;;;;4943096;28;20271;-95
2023/12/06 05:05:17;;;;;;;30.25;12.32;;;-6.00;99.90;;;;;;4958394;28;20199;-95
2023/12/06 05:07:44;;;;;;;27.10;12.10;;;-5.90;99.90;;;;;;4958490;28;20618;-95
2023/12/06 05:10:12;;;;;;;29.38;11.18;;;-6.00;99.90;;;;;;4958243;28;20273;-94
2023/12/06 05:12:40;;;;;;;28.23;12.15;;;-6.10;99.90;;;;;;4958790;28;20196;-93
2023/12/06 05:15:08;;;;;;;30.45;11.60;;;-6.20;99.90;;;;;;4974576;28;20618;-95
2023/12/06 05:17:35;;;;;;;31.70;11.68;;;-6.10;99.90;;;;;;4942631;28;20198;-94
2023/12/06 05:20:03;;;;;;;32.35;12.40;;;-6.00;99.90;;;;;;4973149;28;20725;-95
2023/12/06 05:22:30;;;;;;;31.73;13.43;;;-6.00;99.90;;;;;;4958620;28;20199;-95
2023/12/06 05:24:58;;;;;;;32.30;12.30;;;-6.20;99.90;;;;;;4923595;29;20193;-96
2023/12/06 05:27:25;;;;;;;29.70;12.18;;;-6.20;99.90;;;;;;4939426;29;20197;-94
2023/12/06 05:29:53;;;;;;;26.13;11.02;;;-6.20;99.90;;;;;;4924306;29;20200;-95
2023/12/06 05:32:23;;;;;;;34.35;12.48;;;-6.20;99.90;;;;;;4924271;29;20185;-95
2023/12/06 05:34:51;;;;;;;37.05;12.65;;;-6.20;99.90;;;;;;4923216;29;20299;-94
2023/12/06 05:37:19;;;;;;;30.13;12.65;;;-6.10;99.90;;;;;;4940360;29;20196;-94
2023/12/06 05:39:47;;;;;;;34.55;12.55;;;-6.20;99.90;;;;;;4924653;29;20199;-95
2023/12/06 05:42:16;;;;;;;23.40;11.13;;;-6.20;99.90;;;;;;4919702;29;20237;-95
2023/12/06 05:44:43;;;;;;;29.38;12.38;;;-6.20;99.90;;;;;;4921049;29;20200;-95
2023/12/06 05:47:11;;;;;;;32.45;13.13;;;-6.30;99.90;;;;;;4920858;29;20201;-95
2023/12/06 05:49:38;;;;;;;33.88;13.85;;;-6.30;99.90;;;;;;4936477;29;20201;-95
2023/12/06 05:52:06;;;;;;;31.88;13.13;;;-6.20;99.90;;;;;;4919228;29;20193;-95
2023/12/06 05:54:34;;;;;;;31.35;11.93;;;-6.20;99.90;;;;;;4934703;29;20240;-95
2023/12/06 05:57:02;;;;;;;26.52;11.50;;;-6.10;99.90;;;;;;4919920;29;20200;-95
2023/12/06 05:59:29;;;;;;;33.17;12.57;;;-6.10;99.90;;;;;;4936135;29;20553;-96
2023/12/06 06:01:57;;;;;;;34.72;12.50;;;-6.20;99.90;;;;;;4936656;29;20645;-96
2023/12/06 06:04:26;;;;;;;31.15;12.32;;;-6.20;99.90;;;;;;4921666;29;20203;-95
2023/12/06 06:06:53;;;;;;;29.33;12.40;;;-6.20;99.90;;;;;;4921383;29;20246;-96
2023/12/06 06:09:21;;;;;;;29.08;10.82;;;-6.10;99.90;;;;;;4936189;29;20205;-96
2023/12/06 06:11:49;;;;;;;29.52;11.73;;;-6.00;99.90;;;;;;4919910;29;20211;-95
2023/12/06 06:14:17;;;;;;;30.92;13.77;;;-6.00;99.90;;;;;;4935216;29;20259;-94
2023/12/06 06:16:44;;;;;;;35.47;13.05;;;-6.10;99.90;;;;;;4935364;29;20193;-95
2023/12/06 06:19:11;;;;;;;39.50;13.65;;;-6.10;99.90;;;;;;4922761;29;20208;-95
2023/12/06 06:21:39;;;;;;;31.08;12.98;;;-6.10;99.90;;;;;;4922477;29;20291;-93
2023/12/06 06:24:06;;;;;;;29.70;13.25;;;-6.10;99.90;;;;;;4936990;29;20676;-94
2023/12/06 06:26:35;;;;;;;36.72;12.85;;;-6.00;99.90;;;;;;4936189;29;20205;-94
2023/12/06 06:29:02;;;;;;;32.00;13.18;;;-6.00;99.90;;;;;;4919789;29;20201;-94
2023/12/06 06:31:30;;;;;;;31.10;11.52;;;-6.00;99.90;;;;;;4942344;29;20201;-94
2023/12/06 06:34:01;;;;;;;33.38;12.45;;;-6.00;99.90;;;;;;4934795;29;20684;-94
2023/12/06 06:36:29;;;;;;;33.60;11.73;;;-6.00;99.90;;;;;;4919303;29;20228;-95
2023/12/06 06:38:57;;;;;;;33.63;12.13;;;-6.00;99.90;;;;;;4919822;29;20193;-95
2023/12/06 06:41:24;;;;;;;26.92;10.77;;;-6.10;99.90;;;;;;4921659;29;20319;-94
2023/12/06 06:43:53;;;;;;;35.00;11.85;;;-6.10;99.90;;;;;;4920435;29;20296;-95
2023/12/06 06:46:21;;;;;;;33.42;11.85;;;-6.00;99.90;;;;;;4935912;29;20547;-96
2023/12/06 06:48:49;;;;;;;30.98;11.70;;;-6.10;99.90;;;;;;4919966;29;20219;-95
2023/12/06 06:51:16;;;;;;;27.20;10.85;;;-6.10;99.90;;;;;;4935321;29;20641;-95
2023/12/06 06:53:44;;;;;;;30.08;12.07;;;-6.00;99.90;;;;;;4919134;29;20216;-95
2023/12/06 06:56:11;;;;;;;29.25;12.35;;;-6.00;99.90;;;;;;4918905;29;20197;-95
2023/12/06 06:58:41;;;;;;;34.95;13.38;;;-6.00;99.90;;;;;;4920031;29;20292;-96
2023/12/06 07:01:09;;;;;;;39.60;13.25;;;-6.00;99.90;;;;;;4919505;29;20644;-96
2023/12/06 07:03:36;;;;;;;34.90;13.13;;;-6.10;99.90;;;;;;4919954;29;20209;-96
2023/12/06 07:06:05;;;;;;;34.83;12.30;;;-6.10;99.90;;;;;;4919885;29;20248;-96
2023/12/06 07:08:32;;;;;;;41.35;12.93;;;-6.10;99.90;;;;;;4935680;29;20240;-94
2023/12/06 07:11:00;;;;;;;32.70;13.63;;;-6.20;99.90;;;;;;4920821;29;20212;-95
2023/12/06 07:13:27;;;;;;;30.63;12.25;;;-6.10;99.90;;;;;;4933566;29;20288;-95
2023/12/06 07:15:55;;;;;;;31.58;12.68;;;-6.10;99.90;;;;;;4920435;29;20297;-95
2023/12/06 07:18:23;;;;;;;27.77;11.68;;;-6.10;99.90;;;;;;4920664;29;20193;-96
2023/12/06 07:20:51;;;;;;;29.45;12.07;;;-6.20;99.90;;;;;;4936796;29;20227;-96
2023/12/06 07:23:19;;;;;;;32.85;11.55;;;-6.10;99.90;;;;;;4935706;29;20249;-94
2023/12/06 07:25:47;;;;;;;32.22;12.35;;;-6.20;99.90;;;;;;4919987;29;20197;-96
2023/12/06 07:28:14;;;;;;;30.50;13.75;;;-6.10;99.90;;;;;;4919685;29;20204;-96
2023/12/06 07:30:42;;;;;;;28.08;13.35;;;-6.10;99.90;;;;;;4935667;29;20197;-95
2023/12/06 07:33:09;;;;;;;37.35;13.90;;;-6.10;99.90;;;;;;4934810;29;20546;-95
2023/12/06 07:35:37;;;;;;;40.42;13.73;;;-6.10;99.90;;;;;;4951704;29;20240;-95
2023/12/06 07:38:08;;;;;;;34.97;13.48;;;-6.20;99.90;;;;;;4922218;29;20194;-96
2023/12/06 07:40:36;;;;;;;39.45;12.95;;;-6.20;99.90;;;;;;4922130;29;20181;-96
2023/12/06 07:43:04;;;;;;;42.10;16.15;;;-6.20;99.90;;;;;;4940532;29;20208;-95
2023/12/06 07:45:31;;;;;;;41.45;16.17;;;-6.20;99.90;;;;;;4924199;29;20256;-95
2023/12/06 07:48:00;;;;;;;35.00;15.35;;;-6.20;99.90;;;;;;4935252;29;20216;-96
2023/12/06 07:50:28;;;;;;;40.08;14.70;;;-6.20;99.90;;;;;;4922292;29;20587;-95
2023/12/06 07:52:56;;;;;;;38.53;14.27;;;-6.20;99.90;;;;;;4938107;29;20201;-95
2023/12/06 07:55:23;;;;;;;36.60;14.95;;;-6.20;99.90;;;;;;4924505;29;20221;-95
2023/12/06 07:57:53;;;;;;;33.17;13.40;;;-6.20;99.90;;;;;;4939906;29;20197;-93
2023/12/06 08:00:22;;;;;;;35.65;13.85;;;-6.30;99.90;;;;;;4933683;28;20196;-96
2023/12/06 08:02:50;;;;;;;36.22;14.10;;;-6.30;99.90;;;;;;4973215;28;20192;-95
2023/12/06 08:05:19;;;;;;;42.47;14.80;;;-6.30;99.90;;;;;;4959774;28;20210;-96
2023/12/06 08:07:48;;;;;;;41.60;15.43;;;-6.30;99.90;;;;;;4946099;28;20741;-96
2023/12/06 08:10:26;;;;;;;38.88;14.60;;;-6.30;99.90;;;;;;4958937;28;20201;-95
2023/12/06 08:12:54;;;;;;;42.95;17.10;;;-6.20;99.90;;;;;;4952470;28;20942;-96
2023/12/06 08:15:22;;;;;;;47.28;18.15;;;-6.20;99.90;;;;;;4952823;28;20216;-96
2023/12/06 08:17:50;;;;;;;43.38;17.50;;;-6.30;99.90;;;;;;4949698;28;20236;-95
2023/12/06 08:20:18;;;;;;;60.88;15.40;;;-6.20;99.90;;;;;;4951006;28;20291;-95
2023/12/06 08:22:45;;;;;;;48.30;16.48;;;-6.20;99.90;;;;;;4951634;28;20196;-95
2023/12/06 08:25:13;;;;;;;48.45;17.92;;;-6.30;99.90;;;;;;4951071;28;20259;-95
2023/12/06 08:27:43;;;;;;;42.63;18.15;;;-6.20;99.90;;;;;;4950638;28;20556;-95
2023/12/06 08:30:11;;;;;;;51.70;19.05;;;-6.20;99.90;;;;;;4942694;28;20205;-95
2023/12/06 08:32:39;;;;;;;45.90;17.73;;;-6.20;99.90;;;;;;4952146;28;20200;-95
2023/12/06 08:35:07;;;;;;;41.58;16.15;;;-6.10;99.90;;;;;;4949960;28;20216;-94
2023/12/06 08:37:35;;;;;;;47.88;16.55;;;-6.10;99.90;;;;;;4958011;28;20193;-96
2023/12/06 08:40:04;;;;;;;46.25;15.40;;;-6.10;99.90;;;;;;4939516;28;20225;-95
2023/12/06 08:42:34;;;;;;;47.78;16.55;;;-6.00;99.90;;;;;;4951943;28;20249;-96
2023/12/06 08:45:08;;;;;;;55.13;17.73;;;-6.00;99.90;;;;;;4940998;29;20750;-95
2023/12/06 08:47:36;;;;;;;43.97;14.93;;;-6.00;99.90;;;;;;4922112;29;20194;-95
2023/12/06 08:50:09;;;;;;;40.13;15.50;;;-6.00;99.90;;;;;;4922208;29;20197;-96
2023/12/06 08:52:37;;;;;;;41.63;15.32;;;-5.90;99.90;;;;;;4955758;28;20204;-95
2023/12/06 08:55:07;;;;;;;38.00;13.65;;;-6.00;99.90;;;;;;4957229;28;20209;-95
2023/12/06 08:57:34;;;;;;;41.20;15.85;;;-6.00;99.90;;;;;;4957236;28;20275;-95
2023/12/06 09:00:07;;;;;;;49.72;17.02;;;-6.00;99.90;;;;;;4956533;29;20204;-96
2023/12/06 09:02:35;;;;;;;46.00;15.68;;;-6.00;99.90;;;;;;4937419;29;20185;-95
2023/12/06 09:05:03;;;;;;;36.72;13.65;;;-6.00;99.90;;;;;;4922376;29;20201;-94
2023/12/06 09:07:34;;;;;;;37.35;15.52;;;-6.10;99.90;;;;;;4948988;29;20193;-96
2023/12/06 09:10:03;;;;;;;45.97;14.57;;;-6.10;99.90;;;;;;4973576;28;20211;-96
2023/12/06 09:12:31;;;;;;;28.55;10.93;;;-6.10;99.90;;;;;;4943533;29;20658;-95
2023/12/06 09:14:59;;;;;;;33.05;12.95;;;-6.10;99.90;;;;;;4974854;28;20227;-95
2023/12/06 09:17:26;;;;;;;37.03;14.07;;;-6.20;99.90;;;;;;4958497;29;20203;-96
2023/12/06 09:19:54;;;;;;;37.08;13.57;;;-6.10;99.90;;;;;;4959062;28;20205;-96
2023/12/06 09:22:21;;;;;;;42.30;14.32;;;-6.00;99.90;;;;;;4959894;29;20264;-96
2023/12/06 09:24:49;;;;;;;37.28;15.00;;;-6.00;99.90;;;;;;4960211;29;20582;-95
2023/12/06 09:27:17;;;;;;;33.38;12.25;;;-6.00;99.90;;;;;;4943995;29;20196;-95
2023/12/06 09:29:45;;;;;;;38.00;14.65;;;-5.90;99.90;;;;;;4956640;29;20201;-96
2023/12/06 09:32:13;;;;;;;43.03;16.45;;;-5.80;99.90;;;;;;4941220;29;20193;-96
2023/12/06 09:34:41;;;;;;;34.95;14.80;;;-5.90;99.90;;;;;;4941437;29;20212;-96
2023/12/06 09:37:15;;;;;;;35.42;14.57;;;-5.90;99.90;;;;;;4954671;29;20541;-96
2023/12/06 09:39:43;;;;;;;41.25;12.30;;;-5.80;99.90;;;;;;4921025;29;20668;-96
2023/12/06 09:42:11;;;;;;;37.70;14.02;;;-5.80;99.90;;;;;;4922464;29;20235;-95
2023/12/06 09:44:41;;;;;;;38.13;13.35;;;-6.10;99.90;;;;;;4921223;29;20221;-96
2023/12/06 09:47:11;;;;;;;36.35;12.65;;;-6.10;99.90;;;;;;4922574;29;20186;-96
2023/12/06 09:49:39;;;;;;;34.10;13.05;;;-6.10;99.90;;;;;;4953159;29;20214;-96
2023/12/06 09:52:23;;;;;;;38.67;14.93;;;-6.00;99.90;;;;;;4953682;29;20197;-96
2023/12/06 09:54:52;;;;;;;40.95;14.30;;;-5.90;99.90;;;;;;4936647;29;20236;-96
2023/12/06 09:57:19;;;;;;;41.05;14.27;;;-6.00;99.90;;;;;;4920856;29;20280;-95
2023/12/06 09:59:47;;;;;;;41.25;14.50;;;-5.90;99.90;;;;;;4956006;29;20641;-96
2023/12/06 10:02:14;;;;;;;31.73;11.88;;;-5.80;99.90;;;;;;4939434;29;20200;-96
2023/12/06 10:04:42;;;;;;;45.22;15.23;;;-5.80;99.90;;;;;;4955545;29;20255;-95
2023/12/06 10:07:11;;;;;;;43.92;13.95;;;-5.80;99.90;;;;;;4944015;29;20222;-95
2023/12/06 10:09:48;;;;;;;33.78;12.82;;;-5.80;99.90;;;;;;4955332;29;20252;-96
2023/12/06 10:12:16;;;;;;;34.05;14.20;;;-5.80;99.90;;;;;;4956944;29;20189;-96
2023/12/06 10:14:45;;;;;;;44.88;14.48;;;-5.80;99.90;;;;;;4971865;28;20221;-95
2023/12/06 10:17:13;;;;;;;37.53;13.95;;;-5.90;99.90;;;;;;4953916;29;20203;-95
2023/12/06 10:19:42;;;;;;;35.40;11.77;;;-6.00;99.90;;;;;;4971147;28;20189;-96
2023/12/06 10:22:09;;;;;;;36.50;13.60;;;-6.20;99.90;;;;;;4971827;28;20196;-95
2023/12/06 10:24:43;;;;;;;30.42;10.73;;;-6.20;99.90;;;;;;4960493;29;20219;-93
2023/12/06 10:27:11;;;;;;;31.33;12.15;;;-6.00;99.90;;;;;;4953794;28;20569;-95
2023/12/06 10:29:40;;;;;;;36.58;13.43;;;-6.10;99.90;;;;;;4950241;28;20793;-95
2023/12/06 10:32:15;;;;;;;33.22;13.25;;;-6.00;99.90;;;;;;4918743;29;20248;-94
2023/12/06 10:34:43;;;;;;;33.33;12.38;;;-5.90;99.90;;;;;;4918891;29;20213;-94
2023/12/06 10:37:19;;;;;;;31.90;13.52;;;-5.80;99.90;;;;;;4931110;29;20686;-94
2023/12/06 10:39:50;;;;;;;30.55;11.57;;;-5.90;99.90;;;;;;4950874;29;20192;-93
2023/12/06 10:42:28;;;;;;;32.28;12.20;;;-5.90;99.90;;;;;;4918410;29;20229;-95
2023/12/06 10:44:59;;;;;;;29.77;11.27;;;-5.90;99.90;;;;;;4945779;29;20211;-94
2023/12/06 10:47:28;;;;;;;29.17;11.75;;;-5.90;99.90;;;;;;4950219;29;20196;-95
2023/12/06 10:50:00;;;;;;;29.30;11.55;;;-5.90;99.90;;;;;;4953039;28;20196;-94
2023/12/06 10:52:29;;;;;;;30.30;12.50;;;-6.00;99.90;;;;;;4969659;28;20646;-95
2023/12/06 10:54:59;;;;;;;30.95;12.35;;;-6.00;99.90;;;;;;4968790;28;20224;-94
2023/12/06 10:57:28;;;;;;;29.00;10.93;;;-5.90;99.90;;;;;;4954857;28;20227;-95
2023/12/06 11:00:00;;;;;;;26.38;11.30;;;-5.90;99.90;;;;;;4953423;29;20196;-95
2023/12/06 11:02:29;;;;;;;34.63;12.60;;;-5.90;99.90;;;;;;4941925;29;20207;-96
2023/12/06 11:05:05;;;;;;;34.63;12.57;;;-5.90;99.90;;;;;;4958965;28;20196;-95
2023/12/06 11:08:14;;;;;;;34.17;13.30;;;-5.90;99.90;;;;;;4926897;29;20204;-95
2023/12/06 11:10:51;;;;;;;34.13;12.63;;;-5.90;99.90;;;;;;4953281;28;20683;-95
2023/12/06 11:13:59;;;;;;;36.22;14.02;;;-5.80;99.90;;;;;;4936980;29;20195;-95
2023/12/06 11:16:48;;;;;;;39.53;16.35;;;-5.70;99.90;;;;;;4917936;29;20236;-94
2023/12/06 11:19:16;;;;;;;37.25;15.25;;;-5.70;99.90;;;;;;4935010;29;20747;-95
2023/12/06 11:21:44;;;;;;;37.45;14.50;;;-5.70;99.90;;;;;;4917954;29;20216;-96
2023/12/06 11:24:11;;;;;;;31.90;13.25;;;-5.70;99.90;;;;;;4949904;29;20201;-95
2023/12/06 11:26:39;;;;;;;36.65;15.05;;;-5.60;99.90;;;;;;4929740;29;20208;-96
2023/12/06 11:29:07;;;;;;;34.35;13.63;;;-5.70;99.90;;;;;;4952027;29;20288;-96
2023/12/06 11:31:37;;;;;;;37.42;14.45;;;-5.60;99.90;;;;;;4937206;29;20271;-95
2023/12/06 11:34:09;;;;;;;34.28;14.05;;;-5.80;99.90;;;;;;4969103;28;20200;-96
2023/12/06 11:36:37;;;;;;;35.60;15.30;;;-5.80;99.90;;;;;;4953032;29;20203;-95
2023/12/06 11:39:18;;;;;;;37.95;13.88;;;-5.70;99.90;;;;;;4937977;29;20193;-95
2023/12/06 11:41:53;;;;;;;30.25;12.70;;;-5.70;99.90;;;;;;4972920;28;20224;-96
2023/12/06 11:44:21;;;;;;;33.55;12.05;;;-5.70;99.90;;;;;;4973667;28;20169;-95
2023/12/06 11:46:55;;;;;;;33.13;12.30;;;-5.80;99.90;;;;;;4972416;28;20195;-95
2023/12/06 11:49:26;;;;;;;31.45;12.70;;;-5.70;99.90;;;;;;4957226;28;20256;-94
2023/12/06 11:52:04;;;;;;;30.63;13.32;;;-5.70;99.90;;;;;;4973002;28;20671;-95
2023/12/06 11:54:32;;;;;;;32.15;12.13;;;-5.70;99.90;;;;;;4972752;28;20193;-96
2023/12/06 11:57:07;;;;;;;37.92;13.18;;;-5.80;99.90;;;;;;4973034;28;20196;-95
2023/12/06 11:59:35;;;;;;;33.67;13.55;;;-5.90;99.90;;;;;;4956882;29;20251;-95
2023/12/06 12:02:03;;;;;;;35.85;12.75;;;-5.90;99.90;;;;;;4963037;28;20196;-96
2023/12/06 12:04:33;;;;;;;31.20;12.02;;;-5.80;99.90;;;;;;4928476;29;20205;-95
2023/12/06 12:07:01;;;;;;;31.33;12.13;;;-5.80;99.90;;;;;;4921752;29;20212;-95
2023/12/06 12:09:30;;;;;;;37.15;14.18;;;-5.80;99.90;;;;;;4936953;28;20742;-94
2023/12/06 12:11:57;;;;;;;34.67;15.20;;;-5.80;99.90;;;;;;4921690;29;20738;-95
2023/12/06 12:14:33;;;;;;;30.30;13.32;;;-5.80;99.90;;;;;;4921708;29;20260;-96
2023/12/06 12:17:02;;;;;;;34.35;12.85;;;-5.80;99.90;;;;;;4938281;29;20212;-95
2023/12/06 12:19:30;;;;;;;38.08;13.43;;;-5.80;99.90;;;;;;4948985;29;20195;-94
2023/12/06 12:22:02;;;;;;;37.60;14.55;;;-5.70;99.90;;;;;;4939852;29;20279;-95
2023/12/06 12:24:30;;;;;;;37.70;14.35;;;-5.70;99.90;;;;;;4955835;28;20283;-95
2023/12/06 12:26:58;;;;;;;37.38;14.38;;;-5.70;99.90;;;;;;4971289;28;20200;-96
2023/12/06 12:29:25;;;;;;;32.85;13.07;;;-5.70;99.90;;;;;;4956340;28;20200;-96
2023/12/06 12:31:53;;;;;;;32.08;12.90;;;-5.70;99.90;;;;;;4969180;28;20308;-95
2023/12/06 12:34:21;;;;;;;34.72;13.10;;;-5.70;99.90;;;;;;4922023;29;20703;-94
2023/12/06 12:36:49;;;;;;;34.50;12.73;;;-5.70;99.90;;;;;;4920712;29;20232;-94